Time;durP1;ratioP1;P1;durP2;ratioP2;P2;SDS_P1;SDS_P2;PMS_P1;PMS_P2;Temp;Humidity;BMP_temperature;BMP_pressure;BME280_temperature;BME280_humidity;BME280_pressure;Samples;Min_cycle;Max_cycle;Signal;HPM_P1;HPM_P2
2022/08/22 00:02:23;;;;;;;0.70;0.70;;;22.20;94.60;;;;;;4984930;28;20584;-73
2022/08/22 00:04:58;;;;;;;1.80;0.63;;;22.20;94.70;;;;;;4988137;28;20307;-74
2022/08/22 00:07:41;;;;;;;0.85;0.80;;;22.10;94.90;;;;;;4987854;28;20590;-73
2022/08/22 00:10:16;;;;;;;0.60;0.60;;;22.10;95.20;;;;;;4984509;28;22068;-73
2022/08/22 00:12:48;;;;;;;0.70;0.70;;;22.10;95.20;;;;;;4986323;28;20208;-73
2022/08/22 00:15:22;;;;;;;1.05;0.70;;;22.10;95.20;;;;;;4984328;28;20217;-73
2022/08/22 00:17:55;;;;;;;0.88;0.88;;;22.00;95.30;;;;;;4987055;28;20217;-73
2022/08/22 00:20:27;;;;;;;1.05;0.70;;;22.00;95.40;;;;;;4987941;28;20600;-73
2022/08/22 00:22:59;;;;;;;0.80;0.80;;;21.90;95.50;;;;;;4988164;28;20208;-73
2022/08/22 00:25:47;;;;;;;1.77;0.70;;;22.00;95.70;;;;;;4988183;28;20251;-73
2022/08/22 00:28:18;;;;;;;0.70;0.70;;;21.90;95.90;;;;;;4988276;28;20595;-73
2022/08/22 00:30:56;;;;;;;0.70;0.70;;;21.90;95.90;;;;;;4986089;28;20232;-73
2022/08/22 00:33:28;;;;;;;0.70;0.70;;;21.90;96.00;;;;;;4985123;28;20219;-73
2022/08/22 00:36:07;;;;;;;0.60;0.60;;;21.80;96.00;;;;;;4984298;28;20232;-73
2022/08/22 00:38:40;;;;;;;1.55;0.82;;;21.90;96.10;;;;;;4983764;28;20686;-73
2022/08/22 00:41:13;;;;;;;0.70;0.70;;;21.80;96.10;;;;;;4984142;28;20228;-73
2022/08/22 00:44:17;;;;;;;0.70;0.70;;;21.80;96.30;;;;;;4984904;28;20225;-73
2022/08/22 00:47:04;;;;;;;0.88;0.88;;;21.80;96.70;;;;;;4987426;28;20699;-73
2022/08/22 00:49:51;;;;;;;0.77;0.77;;;21.80;96.60;;;;;;4987216;28;20235;-72
2022/08/22 00:52:57;;;;;;;1.48;0.65;;;21.80;96.60;;;;;;4986794;28;20227;-73
2022/08/22 00:55:41;;;;;;;0.73;0.73;;;21.80;96.80;;;;;;4981925;28;20217;-73
2022/08/22 00:58:34;;;;;;;0.70;0.70;;;21.70;96.40;;;;;;4985280;28;20212;-73
2022/08/22 01:01:05;;;;;;;0.65;0.65;;;21.50;96.60;;;;;;4986610;28;20248;-73
2022/08/22 01:03:55;;;;;;;0.68;0.68;;;21.50;96.70;;;;;;4987636;28;20316;-73
2022/08/22 01:06:36;;;;;;;0.75;0.75;;;21.40;97.20;;;;;;4982861;28;20217;-73
2022/08/22 01:09:13;;;;;;;0.82;0.82;;;21.40;97.20;;;;;;4985968;28;20228;-72
2022/08/22 01:12:00;;;;;;;0.80;0.80;;;21.40;97.00;;;;;;4987159;28;20225;-73
2022/08/22 01:14:41;;;;;;;0.80;0.80;;;21.30;97.40;;;;;;4985137;28;20672;-73
2022/08/22 01:17:46;;;;;;;0.80;0.80;;;21.30;97.70;;;;;;4985313;28;20275;-73
2022/08/22 01:20:46;;;;;;;0.80;0.80;;;21.30;98.20;;;;;;4986405;28;20236;-72
2022/08/22 01:23:46;;;;;;;1.88;0.80;;;21.00;98.40;;;;;;4990817;28;20197;-73
2022/08/22 01:26:57;;;;;;;0.85;0.85;;;20.90;98.60;;;;;;4967616;28;20221;-72
2022/08/22 01:30:08;;;;;;;0.80;0.80;;;20.80;99.00;;;;;;4987579;28;20215;-73
2022/08/22 01:33:18;;;;;;;1.40;1.00;;;20.80;99.30;;;;;;4991108;28;20205;-72
2022/08/22 01:36:03;;;;;;;1.10;1.00;;;20.70;99.30;;;;;;4986577;28;20225;-73
2022/08/22 01:38:51;;;;;;;1.00;1.00;;;20.50;99.20;;;;;;4987601;28;20221;-72
2022/08/22 01:41:43;;;;;;;1.00;1.00;;;20.60;99.20;;;;;;4987025;28;20237;-73
2022/08/22 01:44:34;;;;;;;1.00;0.90;;;20.60;99.60;;;;;;4991248;28;20221;-73
2022/08/22 01:47:06;;;;;;;0.70;0.70;;;20.70;99.60;;;;;;4989191;28;20248;-72
2022/08/22 01:49:40;;;;;;;1.15;1.10;;;20.70;99.40;;;;;;4991170;28;20232;-72
2022/08/22 01:52:14;;;;;;;0.85;0.85;;;20.80;99.40;;;;;;4987616;28;20280;-73
2022/08/22 01:54:51;;;;;;;0.95;0.95;;;20.90;99.40;;;;;;4991485;28;20277;-72
2022/08/22 01:57:19;;;;;;;0.70;0.70;;;20.90;99.50;;;;;;4991314;28;20247;-73
2022/08/22 01:59:49;;;;;;;0.90;0.90;;;20.80;99.50;;;;;;4990681;28;20703;-72
2022/08/22 02:02:51;;;;;;;0.90;0.90;;;20.80;99.60;;;;;;4991128;28;20252;-73
2022/08/22 02:05:26;;;;;;;0.85;0.85;;;20.80;99.90;;;;;;4969398;28;20232;-72
2022/08/22 02:08:00;;;;;;;1.00;0.98;;;20.80;99.90;;;;;;4989853;28;20228;-72
2022/08/22 02:10:45;;;;;;;1.20;1.10;;;20.80;99.90;;;;;;4988643;28;20216;-72
2022/08/22 02:13:30;;;;;;;1.17;1.00;;;20.90;99.90;;;;;;4987353;28;20579;-73
2022/08/22 02:16:08;;;;;;;1.02;0.93;;;20.90;99.90;;;;;;4989664;28;20224;-72
2022/08/22 02:19:03;;;;;;;1.00;1.00;;;20.80;99.90;;;;;;4973914;28;20220;-73
2022/08/22 02:21:39;;;;;;;1.10;1.00;;;20.80;99.90;;;;;;4990001;28;20224;-73
2022/08/22 02:24:19;;;;;;;0.82;0.82;;;20.70;99.90;;;;;;4987203;28;20216;-72
2022/08/22 02:26:53;;;;;;;1.00;1.00;;;20.70;99.90;;;;;;4990191;28;20232;-72
2022/08/22 02:29:30;;;;;;;0.90;0.90;;;20.70;99.90;;;;;;4986165;28;20192;-73
2022/08/22 02:32:04;;;;;;;0.80;0.80;;;20.60;99.90;;;;;;4988985;28;20212;-73
2022/08/22 02:34:38;;;;;;;0.80;0.80;;;20.60;99.90;;;;;;4982776;28;20265;-73
2022/08/22 02:37:13;;;;;;;1.00;1.00;;;20.60;99.90;;;;;;4988352;28;20899;-73
2022/08/22 02:39:48;;;;;;;1.65;1.00;;;20.40;99.90;;;;;;4988734;28;20216;-73
2022/08/22 02:42:22;;;;;;;1.00;0.90;;;20.30;99.90;;;;;;4989875;28;20197;-73
2022/08/22 02:44:57;;;;;;;0.82;0.82;;;20.30;99.90;;;;;;4988023;28;20221;-73
2022/08/22 02:47:32;;;;;;;0.98;0.98;;;20.40;99.90;;;;;;4987300;28;20231;-72
2022/08/22 02:50:07;;;;;;;0.80;0.80;;;20.40;99.90;;;;;;4988202;28;20228;-72
2022/08/22 02:52:50;;;;;;;0.98;0.98;;;20.50;99.90;;;;;;4988191;28;20568;-76
2022/08/22 02:55:30;;;;;;;1.20;1.10;;;20.50;99.90;;;;;;4984774;28;20703;-72
2022/08/22 02:58:03;;;;;;;1.08;1.08;;;20.50;99.90;;;;;;4988338;28;20221;-72
2022/08/22 03:00:44;;;;;;;0.95;0.95;;;20.50;99.90;;;;;;4987661;28;20216;-72
2022/08/22 03:03:19;;;;;;;0.90;0.90;;;20.50;99.90;;;;;;4991483;28;20680;-72
2022/08/22 03:05:51;;;;;;;0.82;0.82;;;20.50;99.90;;;;;;4986671;28;20229;-72
2022/08/22 03:08:24;;;;;;;1.23;1.00;;;20.40;99.90;;;;;;4989337;28;20235;-72
2022/08/22 03:11:07;;;;;;;1.50;1.40;;;20.40;99.90;;;;;;4988069;28;20216;-72
2022/08/22 03:13:43;;;;;;;0.90;0.90;;;20.50;99.90;;;;;;4992037;28;20208;-73
2022/08/22 03:16:17;;;;;;;0.95;0.80;;;20.50;99.90;;;;;;4995528;28;20216;-72
2022/08/22 03:18:55;;;;;;;1.05;0.88;;;20.50;99.90;;;;;;4995241;28;20193;-72
2022/08/22 03:21:29;;;;;;;0.80;0.80;;;20.40;99.90;;;;;;4992812;28;20228;-72
2022/08/22 03:24:03;;;;;;;0.90;0.90;;;20.40;99.90;;;;;;4991571;28;20598;-72
2022/08/22 03:26:41;;;;;;;1.13;0.80;;;20.40;99.90;;;;;;4992076;28;20291;-72
2022/08/22 03:29:13;;;;;;;1.13;1.00;;;20.40;99.90;;;;;;4988161;28;20565;-71
2022/08/22 03:32:05;;;;;;;0.85;0.85;;;20.30;99.90;;;;;;4988665;28;20224;-72
2022/08/22 03:34:32;;;;;;;0.90;0.90;;;20.30;99.90;;;;;;4994366;28;20229;-72
2022/08/22 03:37:06;;;;;;;1.02;0.95;;;20.30;99.90;;;;;;4993933;28;20231;-73
2022/08/22 03:39:53;;;;;;;0.90;0.90;;;20.20;99.90;;;;;;4999272;28;20228;-72
2022/08/22 03:42:44;;;;;;;1.40;1.30;;;20.20;99.90;;;;;;4986033;28;20193;-73
2022/08/22 03:45:38;;;;;;;0.90;0.90;;;20.10;99.90;;;;;;4984500;28;20228;-72
2022/08/22 03:48:35;;;;;;;0.90;0.90;;;20.00;99.90;;;;;;4984077;28;20213;-72
2022/08/22 03:51:26;;;;;;;0.80;0.80;;;20.00;99.90;;;;;;4982088;28;20248;-72
2022/08/22 03:54:29;;;;;;;1.00;1.00;;;20.00;99.90;;;;;;4984075;28;21547;-72
2022/08/22 03:57:32;;;;;;;1.23;1.13;;;20.10;99.90;;;;;;4981627;28;20231;-72
2022/08/22 04:00:18;;;;;;;1.10;1.10;;;20.00;99.90;;;;;;4984340;28;20228;-72
2022/08/22 04:03:19;;;;;;;1.15;1.00;;;20.00;99.90;;;;;;4987809;28;20196;-72
2022/08/22 04:06:06;;;;;;;1.00;0.85;;;20.00;99.90;;;;;;4969277;28;20217;-72
2022/08/22 04:09:24;;;;;;;1.17;1.08;;;20.00;99.90;;;;;;4987790;28;20670;-72
2022/08/22 04:12:22;;;;;;;0.90;0.90;;;20.00;99.90;;;;;;4927369;29;20226;-72
2022/08/22 04:15:32;;;;;;;0.90;0.90;;;20.00;99.90;;;;;;4926223;29;20271;-73
2022/08/22 04:18:30;;;;;;;2.60;1.00;;;20.00;99.90;;;;;;4984948;28;20935;-72
2022/08/22 04:21:20;;;;;;;1.83;1.13;;;20.00;99.90;;;;;;4984813;28;20235;-73
2022/08/22 04:24:24;;;;;;;1.00;1.00;;;20.10;99.90;;;;;;4987925;28;20197;-72
2022/08/22 04:26:55;;;;;;;1.08;1.00;;;20.10;99.90;;;;;;4945133;28;20224;-72
2022/08/22 04:29:28;;;;;;;0.90;0.90;;;20.00;99.90;;;;;;4987049;28;20196;-72
2022/08/22 04:32:05;;;;;;;4.50;1.10;;;20.00;99.90;;;;;;4987610;28;20192;-72
2022/08/22 04:34:38;;;;;;;1.10;1.08;;;19.90;99.90;;;;;;4985179;28;20236;-72
2022/08/22 04:37:12;;;;;;;1.25;1.15;;;19.90;99.90;;;;;;4988367;28;20308;-73
2022/08/22 04:39:47;;;;;;;0.90;0.90;;;19.80;99.90;;;;;;4985573;28;20729;-72
2022/08/22 04:42:20;;;;;;;1.27;1.15;;;19.70;99.90;;;;;;4985883;28;20192;-72
2022/08/22 04:44:52;;;;;;;1.10;1.00;;;19.80;99.90;;;;;;4984101;28;22279;-72
2022/08/22 04:47:30;;;;;;;1.10;1.10;;;19.70;99.90;;;;;;4986932;28;20322;-73
2022/08/22 04:50:03;;;;;;;0.98;0.98;;;19.60;99.90;;;;;;4986697;28;20220;-73
2022/08/22 04:52:47;;;;;;;1.33;1.23;;;19.60;99.90;;;;;;4988799;28;20212;-73
2022/08/22 04:55:28;;;;;;;0.90;0.90;;;19.50;99.90;;;;;;4986590;28;20216;-73
2022/08/22 04:58:04;;;;;;;1.60;1.25;;;19.40;99.90;;;;;;4990416;28;20239;-73
2022/08/22 05:00:40;;;;;;;1.25;1.13;;;19.40;99.90;;;;;;4989792;28;20216;-75
2022/08/22 05:03:15;;;;;;;1.00;1.00;;;19.40;99.90;;;;;;4991131;28;20224;-74
2022/08/22 05:05:44;;;;;;;1.25;1.15;;;19.30;99.90;;;;;;4988671;28;20220;-73
2022/08/22 05:08:17;;;;;;;1.20;1.10;;;19.30;99.90;;;;;;4991146;28;20232;-73
2022/08/22 05:10:47;;;;;;;1.13;1.02;;;19.50;99.90;;;;;;4988631;28;20221;-73
2022/08/22 05:13:21;;;;;;;4.90;1.33;;;19.90;99.90;;;;;;4989820;28;20550;-74
2022/08/22 05:15:52;;;;;;;0.85;0.85;;;20.20;99.90;;;;;;5012646;23;20697;-76
2022/08/22 05:18:24;;;;;;;1.10;1.10;;;20.50;99.90;;;;;;5026671;28;20241;-75
2022/08/22 05:20:53;;;;;;;1.17;1.08;;;20.80;99.90;;;;;;5026972;28;20517;-77
2022/08/22 05:23:25;;;;;;;1.00;1.00;;;21.00;99.90;;;;;;5016881;28;20502;-76
2022/08/22 05:25:56;;;;;;;1.17;1.15;;;21.20;99.90;;;;;;5019058;28;20226;-76
2022/08/22 05:28:32;;;;;;;1.20;1.15;;;21.10;99.90;;;;;;5012155;28;20211;-77
2022/08/22 05:31:05;;;;;;;1.40;1.30;;;21.00;99.90;;;;;;5010976;28;20224;-75
2022/08/22 05:33:38;;;;;;;1.42;1.33;;;21.00;99.90;;;;;;5005859;28;20227;-76
2022/08/22 05:36:09;;;;;;;1.30;1.00;;;21.20;99.90;;;;;;5006714;28;20238;-75
2022/08/22 05:38:41;;;;;;;1.27;1.20;;;21.30;99.90;;;;;;5011163;28;20197;-76
2022/08/22 05:41:11;;;;;;;1.40;1.30;;;21.40;99.90;;;;;;5009711;28;20571;-76
2022/08/22 05:43:41;;;;;;;1.13;1.13;;;21.50;99.90;;;;;;5007065;28;20218;-76
2022/08/22 05:46:16;;;;;;;1.10;1.10;;;21.70;99.90;;;;;;5009191;28;20220;-76
2022/08/22 05:48:53;;;;;;;1.40;1.30;;;21.80;99.90;;;;;;5000899;28;20291;-75
2022/08/22 05:51:26;;;;;;;1.05;1.00;;;21.80;99.90;;;;;;5010888;28;20241;-75
2022/08/22 05:54:06;;;;;;;1.27;1.17;;;21.70;99.90;;;;;;5010429;28;20207;-76
2022/08/22 05:56:38;;;;;;;1.35;1.25;;;21.70;99.90;;;;;;5009772;28;20587;-76
2022/08/22 05:59:20;;;;;;;1.30;1.20;;;21.70;99.90;;;;;;5010052;28;20667;-75
2022/08/22 06:01:58;;;;;;;1.30;1.20;;;21.60;99.90;;;;;;5008689;28;20236;-77
2022/08/22 06:04:34;;;;;;;1.30;1.20;;;21.80;99.90;;;;;;5010705;28;20200;-76
2022/08/22 06:07:06;;;;;;;1.15;1.10;;;22.10;99.90;;;;;;5009278;28;20597;-75
2022/08/22 06:09:41;;;;;;;1.65;1.50;;;22.40;99.90;;;;;;5010809;28;20234;-76
2022/08/22 06:12:14;;;;;;;1.27;1.23;;;22.60;99.90;;;;;;5010129;28;20227;-75
2022/08/22 06:14:46;;;;;;;1.00;1.00;;;22.70;99.90;;;;;;5010993;28;20452;-76
2022/08/22 06:17:18;;;;;;;1.08;1.00;;;23.10;99.90;;;;;;5011249;28;20339;-76
2022/08/22 06:19:49;;;;;;;1.40;1.30;;;23.40;99.90;;;;;;5009417;28;20224;-76
2022/08/22 06:22:22;;;;;;;1.40;1.30;;;23.60;99.90;;;;;;5005885;28;20215;-76
2022/08/22 06:24:51;;;;;;;0.82;0.82;;;23.80;99.90;;;;;;5009288;28;20219;-76
2022/08/22 06:27:22;;;;;;;1.38;1.27;;;23.80;99.90;;;;;;5011209;28;20230;-74
2022/08/22 06:29:57;;;;;;;1.00;1.00;;;23.90;99.90;;;;;;5009290;28;20232;-76
2022/08/22 06:32:29;;;;;;;1.35;1.25;;;23.70;99.90;;;;;;5009149;28;20210;-76
2022/08/22 06:35:01;;;;;;;1.30;1.17;;;23.50;99.90;;;;;;5010876;28;20291;-76
2022/08/22 06:37:33;;;;;;;1.55;1.20;;;23.30;99.90;;;;;;5009806;28;20235;-77
2022/08/22 06:40:02;;;;;;;1.17;1.08;;;23.20;99.90;;;;;;5007048;28;20224;-76
2022/08/22 06:42:32;;;;;;;1.20;1.10;;;23.30;99.90;;;;;;5011199;28;20203;-76
2022/08/22 06:45:02;;;;;;;1.25;1.15;;;23.20;99.90;;;;;;5008731;28;20230;-76
2022/08/22 06:47:32;;;;;;;1.45;1.35;;;23.20;99.90;;;;;;5009119;28;20204;-76
2022/08/22 06:50:06;;;;;;;1.50;1.40;;;23.10;99.90;;;;;;5010431;28;20220;-76
2022/08/22 06:52:40;;;;;;;1.48;1.38;;;22.90;99.90;;;;;;5009907;28;20200;-74
2022/08/22 06:55:10;;;;;;;1.77;1.33;;;22.80;99.90;;;;;;5005708;28;20216;-76
2022/08/22 06:57:43;;;;;;;2.00;1.30;;;22.80;99.90;;;;;;5010849;28;20204;-76
2022/08/22 07:00:15;;;;;;;1.45;1.25;;;22.70;99.90;;;;;;5006598;28;20224;-77
2022/08/22 07:02:44;;;;;;;1.27;1.17;;;22.80;99.90;;;;;;5010349;28;20200;-77
2022/08/22 07:05:19;;;;;;;1.25;1.20;;;22.90;99.90;;;;;;5009086;28;20220;-76
2022/08/22 07:07:46;;;;;;;1.10;1.10;;;23.30;99.90;;;;;;5008064;28;20199;-76
2022/08/22 07:10:16;;;;;;;1.17;1.10;;;23.50;99.90;;;;;;5008618;28;21312;-76
2022/08/22 07:12:46;;;;;;;1.33;1.23;;;23.50;99.90;;;;;;5006740;28;20196;-76
2022/08/22 07:15:21;;;;;;;1.42;1.20;;;23.80;99.90;;;;;;5005039;28;20295;-76
2022/08/22 07:17:51;;;;;;;1.30;1.20;;;24.20;99.90;;;;;;5010581;28;20188;-76
2022/08/22 07:20:26;;;;;;;4.20;1.42;;;24.40;99.90;;;;;;5004416;28;20742;-76
2022/08/22 07:22:57;;;;;;;1.20;1.10;;;24.40;99.90;;;;;;5010819;28;20206;-76
2022/08/22 07:25:25;;;;;;;2.53;1.50;;;24.50;99.90;;;;;;5007147;28;20738;-76
2022/08/22 07:28:03;;;;;;;1.38;1.17;;;24.60;99.90;;;;;;5008749;28;20224;-76
2022/08/22 07:30:44;;;;;;;1.20;1.10;;;24.60;99.90;;;;;;5008591;28;20228;-75
2022/08/22 07:33:23;;;;;;;1.52;1.42;;;24.70;99.90;;;;;;5006671;28;20583;-75
2022/08/22 07:35:59;;;;;;;1.40;1.30;;;24.60;99.90;;;;;;5006754;28;20425;-75
2022/08/22 07:38:36;;;;;;;1.35;1.25;;;24.80;99.90;;;;;;5008906;28;20295;-75
2022/08/22 07:41:11;;;;;;;1.30;1.20;;;25.30;99.90;;;;;;5006571;28;20256;-75
2022/08/22 07:43:43;;;;;;;1.05;1.00;;;25.80;99.90;;;;;;5008551;28;20215;-75
2022/08/22 07:46:24;;;;;;;1.52;1.38;;;26.00;99.90;;;;;;5007607;28;20220;-75
2022/08/22 07:48:56;;;;;;;1.30;1.20;;;26.00;99.60;;;;;;5004325;28;20192;-76
2022/08/22 07:51:30;;;;;;;1.27;1.17;;;25.80;99.30;;;;;;5006727;28;20220;-75
2022/08/22 07:54:00;;;;;;;1.33;1.23;;;25.70;99.90;;;;;;5007447;28;20200;-75
2022/08/22 07:56:29;;;;;;;1.17;1.00;;;25.50;99.70;;;;;;5006641;28;20302;-76
2022/08/22 07:59:06;;;;;;;0.90;0.90;;;25.50;99.70;;;;;;5008057;28;20192;-76
2022/08/22 08:01:34;;;;;;;1.40;1.30;;;25.80;99.90;;;;;;5008629;28;20211;-75
2022/08/22 08:04:05;;;;;;;1.30;1.20;;;25.90;99.30;;;;;;5009206;28;20206;-75
2022/08/22 08:06:35;;;;;;;1.15;1.05;;;26.00;99.10;;;;;;5009578;28;20567;-75
2022/08/22 08:09:03;;;;;;;2.55;1.45;;;26.20;99.30;;;;;;5008563;28;20203;-75
2022/08/22 08:11:37;;;;;;;1.90;1.33;;;26.30;98.80;;;;;;5007803;28;20851;-75
2022/08/22 08:14:07;;;;;;;1.27;1.17;;;26.20;98.50;;;;;;5010126;28;20728;-75
2022/08/22 08:16:43;;;;;;;1.50;1.40;;;26.00;98.70;;;;;;5008660;28;20296;-75
2022/08/22 08:19:12;;;;;;;1.50;1.38;;;26.00;98.90;;;;;;5008497;28;20262;-75
2022/08/22 08:21:48;;;;;;;5.47;1.23;;;26.00;98.40;;;;;;5010958;28;20192;-76
2022/08/22 08:24:20;;;;;;;1.73;1.40;;;26.30;99.60;;;;;;5005717;28;20195;-75
2022/08/22 08:29:37;;;;;;;2.35;1.33;;;26.50;99.20;;;;;;5007916;28;20323;-75
2022/08/22 08:32:08;;;;;;;1.30;1.20;;;26.40;98.70;;;;;;5011883;28;20196;-75
2022/08/22 08:34:38;;;;;;;1.50;1.40;;;26.30;98.20;;;;;;5008043;28;20698;-75
2022/08/22 08:37:13;;;;;;;1.52;1.42;;;26.10;96.70;;;;;;5007713;28;21009;-76
2022/08/22 08:39:47;;;;;;;1.35;1.25;;;26.10;96.40;;;;;;5001167;28;20694;-75
2022/08/22 08:43:25;;;;;;;1.50;1.40;;;26.20;96.80;;;;;;5008635;28;20753;-76
2022/08/22 08:45:36;;;;;;;2.88;1.50;;;26.20;96.70;;;;;;5008445;28;20282;-76
2022/08/22 08:48:18;;;;;;;1.40;1.20;;;26.40;96.70;;;;;;5010796;28;20200;-76
2022/08/22 08:50:58;;;;;;;3.03;1.40;;;26.70;96.50;;;;;;5005277;28;20219;-76
2022/08/22 08:53:52;;;;;;;1.52;1.40;;;27.00;96.30;;;;;;5009206;28;20204;-76
2022/08/22 08:56:29;;;;;;;1.42;1.25;;;27.20;95.70;;;;;;5007336;28;20220;-75
2022/08/22 08:59:07;;;;;;;1.63;1.50;;;27.10;95.40;;;;;;5012038;28;20597;-76
2022/08/22 09:02:01;;;;;;;1.33;1.25;;;27.10;95.40;;;;;;5013248;28;20220;-76
2022/08/22 09:04:57;;;;;;;1.40;1.30;;;27.20;95.50;;;;;;5009141;28;20260;-76
2022/08/22 09:07:57;;;;;;;1.40;1.30;;;27.30;94.80;;;;;;5009903;28;20217;-76
2022/08/22 09:11:03;;;;;;;1.40;1.30;;;27.50;95.20;;;;;;5004527;28;20240;-76
2022/08/22 09:13:47;;;;;;;2.20;1.17;;;27.40;94.30;;;;;;4968335;28;20286;-76
2022/08/22 09:16:30;;;;;;;2.03;1.20;;;27.40;94.70;;;;;;5007410;28;20682;-76
2022/08/22 09:19:14;;;;;;;1.38;1.27;;;27.40;95.00;;;;;;5011912;28;20652;-76
2022/08/22 09:22:12;;;;;;;1.35;1.20;;;27.60;94.80;;;;;;5012086;28;20224;-75
2022/08/22 09:25:18;;;;;;;1.42;1.33;;;27.70;93.80;;;;;;5011270;28;20296;-76
2022/08/22 09:27:52;;;;;;;2.80;1.40;;;27.50;94.20;;;;;;4996974;28;20220;-76
2022/08/22 09:30:23;;;;;;;1.30;1.20;;;27.50;95.30;;;;;;5007756;28;20249;-76
2022/08/22 09:32:56;;;;;;;3.70;1.17;;;27.80;94.60;;;;;;5011166;28;20203;-76
2022/08/22 09:35:38;;;;;;;1.40;1.27;;;27.90;94.90;;;;;;5011634;28;20228;-76
2022/08/22 09:38:28;;;;;;;1.42;1.33;;;28.10;93.80;;;;;;5014050;28;20204;-76
2022/08/22 09:41:07;;;;;;;1.40;1.30;;;28.00;93.50;;;;;;5009060;28;20583;-75
2022/08/22 09:43:40;;;;;;;1.40;1.30;;;27.90;94.20;;;;;;5015007;28;20196;-76
2022/08/22 09:46:16;;;;;;;2.38;1.23;;;28.00;94.70;;;;;;5014100;28;20239;-76
2022/08/22 09:49:00;;;;;;;1.20;1.10;;;28.10;93.60;;;;;;5011371;28;20192;-76
2022/08/22 09:51:37;;;;;;;1.75;1.38;;;28.20;93.60;;;;;;5012498;28;20710;-76
2022/08/22 09:54:24;;;;;;;1.40;1.30;;;28.00;93.10;;;;;;5014754;28;20211;-76
2022/08/22 09:57:01;;;;;;;1.85;1.17;;;28.00;93.20;;;;;;5011603;28;20230;-76
2022/08/22 10:00:08;;;;;;;2.05;1.27;;;28.10;93.40;;;;;;5014139;28;25637;-76
2022/08/22 10:02:44;;;;;;;1.30;1.20;;;28.20;92.50;;;;;;5002285;28;20282;-76
2022/08/22 10:05:17;;;;;;;2.65;1.05;;;28.30;92.70;;;;;;5013781;28;20650;-76
2022/08/22 10:08:12;;;;;;;1.30;1.20;;;28.50;92.60;;;;;;5011336;28;20222;-76
2022/08/22 10:11:06;;;;;;;1.30;1.20;;;28.60;91.40;;;;;;5013269;28;20275;-76
2022/08/22 10:14:01;;;;;;;1.30;1.20;;;28.70;92.10;;;;;;5014319;28;20196;-76
2022/08/22 10:16:57;;;;;;;1.10;1.00;;;28.70;91.20;;;;;;5009955;28;20797;-76
2022/08/22 10:19:32;;;;;;;1.20;1.10;;;28.80;92.10;;;;;;5011952;28;20611;-76
2022/08/22 10:22:19;;;;;;;1.48;1.38;;;28.90;91.90;;;;;;5014615;28;20226;-76
2022/08/22 10:24:54;;;;;;;1.55;1.17;;;28.90;91.00;;;;;;5014087;28;20212;-76
2022/08/22 10:27:35;;;;;;;1.70;1.00;;;29.00;91.20;;;;;;5011977;28;20262;-76
2022/08/22 10:30:08;;;;;;;1.10;1.10;;;29.20;90.40;;;;;;5014283;28;20737;-76
2022/08/22 10:32:41;;;;;;;1.17;1.10;;;29.10;90.80;;;;;;5014724;28;20200;-76
2022/08/22 10:35:20;;;;;;;1.50;1.20;;;29.10;90.60;;;;;;5014244;28;20227;-77
2022/08/22 10:37:55;;;;;;;1.95;1.30;;;29.10;87.80;;;;;;5010645;28;20192;-76
2022/08/22 10:40:29;;;;;;;1.30;1.20;;;29.20;86.60;;;;;;5011109;28;20219;-76
2022/08/22 10:43:02;;;;;;;1.00;1.00;;;29.10;87.70;;;;;;5014362;28;20196;-77
2022/08/22 10:45:33;;;;;;;1.35;1.20;;;29.30;88.60;;;;;;5013460;28;20232;-76
2022/08/22 10:48:45;;;;;;;1.85;1.42;;;29.30;87.40;;;;;;5014540;28;20247;-76
2022/08/22 10:51:22;;;;;;;1.77;1.30;;;29.50;84.00;;;;;;5011757;28;20757;-76
2022/08/22 10:54:08;;;;;;;1.42;1.13;;;29.40;83.90;;;;;;5011179;28;20291;-76
2022/08/22 10:56:41;;;;;;;1.50;1.40;;;29.50;84.80;;;;;;5013554;28;20282;-75
2022/08/22 10:59:33;;;;;;;1.35;1.23;;;29.50;83.60;;;;;;5013493;28;20223;-76
2022/08/22 11:02:14;;;;;;;1.38;1.27;;;29.50;83.40;;;;;;5012808;28;20206;-76
2022/08/22 11:04:57;;;;;;;1.48;1.05;;;29.40;82.50;;;;;;5014272;28;20216;-76
2022/08/22 11:07:44;;;;;;;1.60;1.50;;;29.40;81.20;;;;;;5011072;28;20207;-76
2022/08/22 11:10:22;;;;;;;1.55;1.45;;;29.40;80.20;;;;;;5013137;28;20215;-76
2022/08/22 11:13:03;;;;;;;1.10;1.00;;;29.40;80.80;;;;;;5010065;28;20184;-76
2022/08/22 11:16:01;;;;;;;1.35;1.25;;;29.50;80.60;;;;;;5014029;28;20220;-76
2022/08/22 11:19:01;;;;;;;1.30;1.20;;;29.70;79.70;;;;;;5036415;22;20224;-76
2022/08/22 11:21:48;;;;;;;1.58;1.27;;;29.90;79.60;;;;;;5007688;28;20311;-76
2022/08/22 11:25:12;;;;;;;2.70;1.20;;;29.90;79.10;;;;;;5006628;28;20594;-76
2022/08/22 11:27:53;;;;;;;2.60;1.60;;;29.90;78.80;;;;;;5010657;28;20216;-76
2022/08/22 11:30:28;;;;;;;1.35;1.25;;;30.00;79.20;;;;;;4987297;28;20251;-76
2022/08/22 11:33:20;;;;;;;1.45;1.35;;;30.10;79.70;;;;;;4991266;28;20599;-76
2022/08/22 11:35:55;;;;;;;1.45;1.35;;;30.10;75.40;;;;;;4983972;28;20223;-76
2022/08/22 11:38:30;;;;;;;1.08;1.00;;;30.10;76.60;;;;;;4984166;28;20227;-76
2022/08/22 11:41:04;;;;;;;1.40;1.30;;;30.10;77.60;;;;;;4990325;28;20221;-76
2022/08/22 11:43:50;;;;;;;2.35;1.40;;;30.20;76.60;;;;;;4991341;28;20240;-76
2022/08/22 11:46:28;;;;;;;3.03;1.40;;;30.30;76.00;;;;;;4987146;28;20221;-76
2022/08/22 11:49:25;;;;;;;1.48;1.30;;;30.30;76.50;;;;;;4988667;28;20569;-76
2022/08/22 11:52:13;;;;;;;1.30;1.20;;;30.50;77.40;;;;;;4988002;28;20417;-76
2022/08/22 11:55:08;;;;;;;1.90;1.50;;;30.80;74.00;;;;;;4990024;28;20489;-76
2022/08/22 11:57:41;;;;;;;1.58;1.48;;;30.70;76.50;;;;;;4987470;28;20231;-76
2022/08/22 12:00:22;;;;;;;1.55;1.45;;;30.60;74.00;;;;;;4989337;28;20603;-76
2022/08/22 12:03:13;;;;;;;1.65;1.55;;;30.60;73.40;;;;;;4988018;28;20280;-76
2022/08/22 12:05:45;;;;;;;1.45;1.33;;;30.60;69.50;;;;;;4989343;28;20217;-76
2022/08/22 12:08:20;;;;;;;1.50;1.40;;;30.60;74.30;;;;;;4991195;28;20307;-77
2022/08/22 12:10:53;;;;;;;1.58;1.30;;;30.70;73.10;;;;;;4986823;28;20216;-76
2022/08/22 12:13:34;;;;;;;1.00;1.00;;;30.60;74.70;;;;;;4990594;28;20193;-77
2022/08/22 12:16:10;;;;;;;2.03;1.50;;;30.90;72.50;;;;;;4990389;28;20228;-77
2022/08/22 12:18:54;;;;;;;1.75;1.52;;;30.80;71.20;;;;;;4990274;28;20259;-76
2022/08/22 12:22:00;;;;;;;1.40;1.30;;;31.00;72.50;;;;;;4987168;28;20212;-76
2022/08/22 12:24:52;;;;;;;1.35;1.25;;;31.40;74.90;;;;;;4964939;28;20667;-75
2022/08/22 12:27:35;;;;;;;1.67;1.48;;;31.50;68.10;;;;;;4984257;28;20303;-76
2022/08/22 12:30:15;;;;;;;1.45;1.35;;;31.40;68.40;;;;;;4985758;28;20221;-76
2022/08/22 12:33:13;;;;;;;1.30;1.20;;;31.20;67.20;;;;;;4989295;28;20216;-76
2022/08/22 12:35:54;;;;;;;1.70;1.60;;;30.90;67.20;;;;;;4985949;28;20713;-77
2022/08/22 12:38:47;;;;;;;1.50;1.40;;;30.90;70.90;;;;;;4984315;28;20224;-76
2022/08/22 12:41:45;;;;;;;1.40;1.30;;;31.30;71.70;;;;;;4981433;28;20217;-75
2022/08/22 12:44:32;;;;;;;1.52;1.38;;;31.60;69.40;;;;;;4983507;28;20207;-76
2022/08/22 12:47:11;;;;;;;1.50;1.40;;;31.70;67.30;;;;;;4984271;28;20219;-76
2022/08/22 12:49:56;;;;;;;1.38;1.27;;;31.70;67.80;;;;;;4987056;28;20239;-76
2022/08/22 12:52:41;;;;;;;1.27;1.20;;;31.80;66.00;;;;;;4985759;28;20828;-75
2022/08/22 12:55:28;;;;;;;1.23;1.15;;;31.80;67.40;;;;;;4987863;28;20231;-76
2022/08/22 12:58:05;;;;;;;1.40;1.30;;;31.90;66.60;;;;;;4986583;28;20185;-76
2022/08/22 13:00:35;;;;;;;1.48;1.38;;;32.00;68.10;;;;;;4983677;28;20222;-77
2022/08/22 13:03:23;;;;;;;1.10;1.00;;;32.10;67.20;;;;;;4991150;28;20197;-76
2022/08/22 13:05:51;;;;;;;2.00;1.27;;;32.00;65.30;;;;;;4988264;28;20213;-77
2022/08/22 13:08:27;;;;;;;2.42;1.30;;;32.00;66.40;;;;;;4988832;28;20225;-77
2022/08/22 13:11:00;;;;;;;2.33;1.50;;;31.90;65.90;;;;;;4986799;28;20266;-76
2022/08/22 13:13:30;;;;;;;3.10;1.48;;;31.90;66.40;;;;;;4987352;28;20312;-76
2022/08/22 13:16:01;;;;;;;1.10;1.10;;;31.80;65.80;;;;;;4988062;28;21363;-76
2022/08/22 13:18:37;;;;;;;1.35;1.30;;;31.70;65.10;;;;;;4993467;28;20229;-77
2022/08/22 13:21:07;;;;;;;1.20;1.10;;;31.50;63.60;;;;;;4991692;28;20639;-77
2022/08/22 13:23:41;;;;;;;1.48;1.38;;;31.50;65.20;;;;;;4990753;28;20203;-76
2022/08/22 13:26:12;;;;;;;1.30;1.10;;;31.30;63.60;;;;;;4993417;28;20593;-76
2022/08/22 13:28:47;;;;;;;1.75;1.35;;;31.30;64.00;;;;;;4991888;28;20216;-77
2022/08/22 13:31:24;;;;;;;1.33;1.20;;;31.40;66.70;;;;;;4991100;28;20243;-77
2022/08/22 13:33:59;;;;;;;1.48;1.33;;;31.70;67.20;;;;;;4988139;28;20279;-77
2022/08/22 13:36:29;;;;;;;1.85;1.40;;;32.10;67.10;;;;;;4989947;28;20220;-77
2022/08/22 13:39:03;;;;;;;1.70;1.60;;;32.10;68.20;;;;;;4991100;28;20635;-76
2022/08/22 13:41:34;;;;;;;1.60;1.40;;;32.20;65.90;;;;;;4989684;28;20312;-76
2022/08/22 13:44:17;;;;;;;1.17;1.00;;;32.00;64.70;;;;;;4990624;28;20715;-76
2022/08/22 13:46:45;;;;;;;1.25;1.15;;;32.00;64.60;;;;;;4990173;28;20261;-75
2022/08/22 13:49:19;;;;;;;1.50;1.40;;;32.00;64.80;;;;;;4990391;28;20263;-76
2022/08/22 13:51:50;;;;;;;1.38;1.27;;;32.00;64.10;;;;;;4989062;28;20201;-76
2022/08/22 13:54:43;;;;;;;1.27;1.17;;;31.90;64.50;;;;;;4985643;28;20669;-77
2022/08/22 13:57:17;;;;;;;0.93;0.93;;;31.80;61.60;;;;;;4990572;28;20193;-77